sensor_id;sensor_type;location;lat;lon;timestamp;P1;durP1;ratioP1;P2;durP2;ratioP2
7621;SDS011;3852;52.284;8.032;2022-10-17T00:01:06;10.63;;;9.63;;
7621;SDS011;3852;52.284;8.032;2022-10-17T00:03:33;10.57;;;9.67;;
7621;SDS011;3852;52.284;8.032;2022-10-17T00:06:04;10.20;;;9.07;;
7621;SDS011;3852;52.284;8.032;2022-10-17T00:08:32;11.07;;;9.77;;
7621;SDS011;3852;52.284;8.032;2022-10-17T00:10:59;10.83;;;9.83;;
7621;SDS011;3852;52.284;8.032;2022-10-17T00:13:29;9.90;;;9.07;;
7621;SDS011;3852;52.284;8.032;2022-10-17T00:15:56;11.07;;;9.50;;
7621;SDS011;3852;52.284;8.032;2022-10-17T00:18:22;10.97;;;9.87;;
7621;SDS011;3852;52.284;8.032;2022-10-17T00:20:48;10.17;;;9.23;;
7621;SDS011;3852;52.284;8.032;2022-10-17T00:23:14;10.07;;;9.17;;
7621;SDS011;3852;52.284;8.032;2022-10-17T00:25:42;11.30;;;10.20;;
7621;SDS011;3852;52.284;8.032;2022-10-17T00:28:11;10.20;;;9.30;;
7621;SDS011;3852;52.284;8.032;2022-10-17T00:30:39;9.30;;;8.50;;
7621;SDS011;3852;52.284;8.032;2022-10-17T00:33:05;10.23;;;9.23;;
7621;SDS011;3852;52.284;8.032;2022-10-17T00:35:31;11.47;;;10.10;;
7621;SDS011;3852;52.284;8.032;2022-10-17T00:37:57;14.77;;;10.10;;
7621;SDS011;3852;52.284;8.032;2022-10-17T00:40:23;12.07;;;10.90;;
7621;SDS011;3852;52.284;8.032;2022-10-17T00:42:49;11.17;;;10.27;;
7621;SDS011;3852;52.284;8.032;2022-10-17T00:45:19;10.10;;;9.20;;
7621;SDS011;3852;52.284;8.032;2022-10-17T00:47:53;11.23;;;9.57;;
7621;SDS011;3852;52.284;8.032;2022-10-17T00:50:26;11.00;;;10.10;;
7621;SDS011;3852;52.284;8.032;2022-10-17T00:52:52;11.97;;;10.20;;
7621;SDS011;3852;52.284;8.032;2022-10-17T00:55:23;11.30;;;10.10;;
7621;SDS011;3852;52.284;8.032;2022-10-17T00:57:53;11.33;;;10.20;;
7621;SDS011;3852;52.284;8.032;2022-10-17T01:00:19;11.20;;;10.10;;
7621;SDS011;3852;52.284;8.032;2022-10-17T01:02:46;14.17;;;10.77;;
7621;SDS011;3852;52.284;8.032;2022-10-17T01:05:12;10.87;;;9.73;;
7621;SDS011;3852;52.284;8.032;2022-10-17T01:07:40;11.13;;;10.03;;
7621;SDS011;3852;52.284;8.032;2022-10-17T01:10:07;12.67;;;10.40;;
7621;SDS011;3852;52.284;8.032;2022-10-17T01:24:52;12.07;;;10.10;;
7621;SDS011;3852;52.284;8.032;2022-10-17T01:27:36;12.80;;;11.33;;
7621;SDS011;3852;52.284;8.032;2022-10-17T01:30:40;10.43;;;9.47;;
7621;SDS011;3852;52.284;8.032;2022-10-17T01:39:00;11.17;;;10.07;;
7621;SDS011;3852;52.284;8.032;2022-10-17T01:41:43;13.10;;;11.13;;
7621;SDS011;3852;52.284;8.032;2022-10-17T01:47:12;14.13;;;11.27;;
7621;SDS011;3852;52.284;8.032;2022-10-17T01:49:42;13.37;;;11.93;;
7621;SDS011;3852;52.284;8.032;2022-10-17T01:52:14;13.90;;;11.73;;
7621;SDS011;3852;52.284;8.032;2022-10-17T01:54:45;13.20;;;11.80;;
7621;SDS011;3852;52.284;8.032;2022-10-17T01:57:24;13.00;;;11.70;;
7621;SDS011;3852;52.284;8.032;2022-10-17T02:00:03;12.40;;;11.20;;
7621;SDS011;3852;52.284;8.032;2022-10-17T02:02:33;12.97;;;11.10;;
7621;SDS011;3852;52.284;8.032;2022-10-17T02:05:01;13.80;;;11.90;;
7621;SDS011;3852;52.284;8.032;2022-10-17T02:07:28;12.10;;;10.90;;
7621;SDS011;3852;52.284;8.032;2022-10-17T02:09:53;15.10;;;11.80;;
7621;SDS011;3852;52.284;8.032;2022-10-17T02:12:34;12.40;;;11.13;;
7621;SDS011;3852;52.284;8.032;2022-10-17T02:21:02;12.73;;;10.67;;
7621;SDS011;3852;52.284;8.032;2022-10-17T02:27:03;12.20;;;10.80;;
7621;SDS011;3852;52.284;8.032;2022-10-17T02:35:17;9.93;;;9.07;;
7621;SDS011;3852;52.284;8.032;2022-10-17T02:37:45;12.10;;;10.90;;
7621;SDS011;3852;52.284;8.032;2022-10-17T02:40:12;13.13;;;11.57;;
7621;SDS011;3852;52.284;8.032;2022-10-17T02:42:42;11.83;;;10.73;;
7621;SDS011;3852;52.284;8.032;2022-10-17T02:45:10;11.33;;;10.13;;
7621;SDS011;3852;52.284;8.032;2022-10-17T02:50:15;12.50;;;11.33;;
7621;SDS011;3852;52.284;8.032;2022-10-17T02:55:18;11.17;;;10.23;;
7621;SDS011;3852;52.284;8.032;2022-10-17T02:58:18;12.23;;;10.60;;
7621;SDS011;3852;52.284;8.032;2022-10-17T03:00:56;11.37;;;10.37;;
7621;SDS011;3852;52.284;8.032;2022-10-17T03:03:24;11.60;;;10.10;;
7621;SDS011;3852;52.284;8.032;2022-10-17T03:05:53;12.90;;;10.53;;
7621;SDS011;3852;52.284;8.032;2022-10-17T03:08:19;11.93;;;10.77;;
7621;SDS011;3852;52.284;8.032;2022-10-17T03:10:45;12.97;;;11.33;;
7621;SDS011;3852;52.284;8.032;2022-10-17T03:13:11;13.70;;;10.63;;
7621;SDS011;3852;52.284;8.032;2022-10-17T03:15:38;12.97;;;11.67;;
7621;SDS011;3852;52.284;8.032;2022-10-17T03:18:03;12.87;;;11.57;;
7621;SDS011;3852;52.284;8.032;2022-10-17T03:20:29;12.53;;;11.23;;
7621;SDS011;3852;52.284;8.032;2022-10-17T03:22:55;12.40;;;11.20;;
7621;SDS011;3852;52.284;8.032;2022-10-17T03:25:21;14.90;;;11.57;;
7621;SDS011;3852;52.284;8.032;2022-10-17T03:27:47;11.37;;;10.20;;
7621;SDS011;3852;52.284;8.032;2022-10-17T03:30:12;11.27;;;10.00;;
7621;SDS011;3852;52.284;8.032;2022-10-17T03:32:38;11.10;;;10.00;;
7621;SDS011;3852;52.284;8.032;2022-10-17T03:35:04;12.50;;;11.30;;
7621;SDS011;3852;52.284;8.032;2022-10-17T03:37:30;12.17;;;10.97;;
7621;SDS011;3852;52.284;8.032;2022-10-17T03:39:56;13.90;;;11.50;;
7621;SDS011;3852;52.284;8.032;2022-10-17T03:42:21;15.57;;;12.03;;
7621;SDS011;3852;52.284;8.032;2022-10-17T03:44:47;14.17;;;12.77;;
7621;SDS011;3852;52.284;8.032;2022-10-17T03:47:13;13.07;;;11.77;;
7621;SDS011;3852;52.284;8.032;2022-10-17T03:49:39;12.47;;;11.17;;
7621;SDS011;3852;52.284;8.032;2022-10-17T03:52:05;12.07;;;10.87;;
7621;SDS011;3852;52.284;8.032;2022-10-17T03:54:30;13.73;;;12.37;;
7621;SDS011;3852;52.284;8.032;2022-10-17T03:56:56;12.63;;;11.43;;
7621;SDS011;3852;52.284;8.032;2022-10-17T03:59:22;13.97;;;12.47;;
7621;SDS011;3852;52.284;8.032;2022-10-17T04:01:48;12.27;;;11.07;;
7621;SDS011;3852;52.284;8.032;2022-10-17T04:04:13;11.57;;;10.47;;
7621;SDS011;3852;52.284;8.032;2022-10-17T04:06:39;12.83;;;11.53;;
7621;SDS011;3852;52.284;8.032;2022-10-17T04:09:08;12.10;;;10.80;;
7621;SDS011;3852;52.284;8.032;2022-10-17T04:11:34;11.70;;;10.50;;
7621;SDS011;3852;52.284;8.032;2022-10-17T04:14:00;11.43;;;9.80;;
7621;SDS011;3852;52.284;8.032;2022-10-17T04:16:26;11.17;;;10.10;;
7621;SDS011;3852;52.284;8.032;2022-10-17T04:18:56;11.30;;;10.30;;
7621;SDS011;3852;52.284;8.032;2022-10-17T04:21:26;12.27;;;11.07;;
7621;SDS011;3852;52.284;8.032;2022-10-17T04:23:56;11.13;;;10.10;;
7621;SDS011;3852;52.284;8.032;2022-10-17T04:26:24;12.37;;;10.57;;
7621;SDS011;3852;52.284;8.032;2022-10-17T04:28:51;11.63;;;10.53;;
7621;SDS011;3852;52.284;8.032;2022-10-17T04:31:17;11.90;;;10.30;;
7621;SDS011;3852;52.284;8.032;2022-10-17T04:33:45;11.30;;;9.90;;
7621;SDS011;3852;52.284;8.032;2022-10-17T04:36:14;10.07;;;9.17;;
7621;SDS011;3852;52.284;8.032;2022-10-17T04:38:42;11.60;;;10.47;;
7621;SDS011;3852;52.284;8.032;2022-10-17T04:41:12;12.60;;;10.27;;
7621;SDS011;3852;52.284;8.032;2022-10-17T04:43:41;10.70;;;9.60;;
7621;SDS011;3852;52.284;8.032;2022-10-17T04:46:08;11.20;;;9.87;;
7621;SDS011;3852;52.284;8.032;2022-10-17T04:48:37;10.70;;;9.70;;
7621;SDS011;3852;52.284;8.032;2022-10-17T04:51:05;11.10;;;10.00;;
7621;SDS011;3852;52.284;8.032;2022-10-17T04:53:34;11.23;;;10.13;;
7621;SDS011;3852;52.284;8.032;2022-10-17T04:56:06;11.23;;;10.03;;
7621;SDS011;3852;52.284;8.032;2022-10-17T04:58:34;11.43;;;10.23;;
7621;SDS011;3852;52.284;8.032;2022-10-17T05:01:05;11.03;;;9.93;;
7621;SDS011;3852;52.284;8.032;2022-10-17T05:03:39;11.00;;;10.00;;
7621;SDS011;3852;52.284;8.032;2022-10-17T05:06:05;12.17;;;10.20;;
7621;SDS011;3852;52.284;8.032;2022-10-17T05:08:34;11.27;;;10.07;;
7621;SDS011;3852;52.284;8.032;2022-10-17T05:11:00;11.10;;;9.93;;
7621;SDS011;3852;52.284;8.032;2022-10-17T05:13:27;13.17;;;11.13;;
7621;SDS011;3852;52.284;8.032;2022-10-17T05:15:52;11.53;;;10.07;;
7621;SDS011;3852;52.284;8.032;2022-10-17T05:18:25;11.43;;;10.33;;
7621;SDS011;3852;52.284;8.032;2022-10-17T05:20:51;12.07;;;10.50;;
7621;SDS011;3852;52.284;8.032;2022-10-17T05:23:17;11.73;;;9.63;;
7621;SDS011;3852;52.284;8.032;2022-10-17T05:25:43;11.83;;;9.83;;
7621;SDS011;3852;52.284;8.032;2022-10-17T05:28:09;11.43;;;10.10;;
7621;SDS011;3852;52.284;8.032;2022-10-17T05:30:35;10.63;;;9.53;;
7621;SDS011;3852;52.284;8.032;2022-10-17T05:33:00;11.03;;;9.93;;
7621;SDS011;3852;52.284;8.032;2022-10-17T05:35:27;12.23;;;9.40;;
7621;SDS011;3852;52.284;8.032;2022-10-17T05:37:53;10.67;;;9.10;;
7621;SDS011;3852;52.284;8.032;2022-10-17T05:40:19;10.77;;;9.50;;
7621;SDS011;3852;52.284;8.032;2022-10-17T05:42:45;11.00;;;9.00;;
7621;SDS011;3852;52.284;8.032;2022-10-17T05:45:12;10.73;;;9.57;;
7621;SDS011;3852;52.284;8.032;2022-10-17T05:47:39;10.20;;;9.13;;
7621;SDS011;3852;52.284;8.032;2022-10-17T05:50:05;10.07;;;8.87;;
7621;SDS011;3852;52.284;8.032;2022-10-17T05:52:32;10.73;;;8.77;;
7621;SDS011;3852;52.284;8.032;2022-10-17T05:54:58;10.70;;;9.50;;
7621;SDS011;3852;52.284;8.032;2022-10-17T05:57:27;9.67;;;8.67;;
7621;SDS011;3852;52.284;8.032;2022-10-17T05:59:52;9.70;;;8.60;;
7621;SDS011;3852;52.284;8.032;2022-10-17T06:02:18;10.70;;;9.37;;
7621;SDS011;3852;52.284;8.032;2022-10-17T06:04:44;10.07;;;8.93;;
7621;SDS011;3852;52.284;8.032;2022-10-17T06:07:12;10.27;;;8.97;;
7621;SDS011;3852;52.284;8.032;2022-10-17T06:09:38;11.60;;;9.43;;
7621;SDS011;3852;52.284;8.032;2022-10-17T06:12:04;10.73;;;9.53;;
7621;SDS011;3852;52.284;8.032;2022-10-17T06:14:30;12.77;;;9.70;;
7621;SDS011;3852;52.284;8.032;2022-10-17T06:16:56;11.17;;;9.70;;
7621;SDS011;3852;52.284;8.032;2022-10-17T06:19:23;10.83;;;9.73;;
7621;SDS011;3852;52.284;8.032;2022-10-17T06:21:49;11.83;;;9.87;;
7621;SDS011;3852;52.284;8.032;2022-10-17T06:24:14;10.43;;;9.43;;
7621;SDS011;3852;52.284;8.032;2022-10-17T06:26:41;12.23;;;9.77;;
7621;SDS011;3852;52.284;8.032;2022-10-17T06:29:10;11.83;;;10.27;;
7621;SDS011;3852;52.284;8.032;2022-10-17T06:31:37;11.57;;;10.37;;
7621;SDS011;3852;52.284;8.032;2022-10-17T06:34:03;10.83;;;9.77;;
7621;SDS011;3852;52.284;8.032;2022-10-17T06:36:31;11.67;;;10.47;;
7621;SDS011;3852;52.284;8.032;2022-10-17T06:38:57;12.23;;;10.10;;
7621;SDS011;3852;52.284;8.032;2022-10-17T06:41:23;11.40;;;9.97;;
7621;SDS011;3852;52.284;8.032;2022-10-17T06:43:49;13.57;;;11.17;;
7621;SDS011;3852;52.284;8.032;2022-10-17T06:46:15;13.83;;;10.57;;
7621;SDS011;3852;52.284;8.032;2022-10-17T06:48:42;12.17;;;10.53;;
7621;SDS011;3852;52.284;8.032;2022-10-17T06:51:09;13.20;;;10.07;;
7621;SDS011;3852;52.284;8.032;2022-10-17T06:53:36;10.50;;;9.50;;
7621;SDS011;3852;52.284;8.032;2022-10-17T06:56:04;11.77;;;10.50;;
7621;SDS011;3852;52.284;8.032;2022-10-17T06:58:35;11.43;;;10.23;;
7621;SDS011;3852;52.284;8.032;2022-10-17T07:01:05;11.73;;;10.23;;
7621;SDS011;3852;52.284;8.032;2022-10-17T07:03:34;11.23;;;10.13;;
7621;SDS011;3852;52.284;8.032;2022-10-17T07:06:00;17.87;;;11.00;;
7621;SDS011;3852;52.284;8.032;2022-10-17T07:08:26;14.37;;;11.73;;
7621;SDS011;3852;52.284;8.032;2022-10-17T07:10:52;11.87;;;10.63;;
7621;SDS011;3852;52.284;8.032;2022-10-17T07:13:19;14.67;;;10.80;;
7621;SDS011;3852;52.284;8.032;2022-10-17T07:15:45;14.47;;;11.60;;
7621;SDS011;3852;52.284;8.032;2022-10-17T07:18:11;12.20;;;10.07;;
7621;SDS011;3852;52.284;8.032;2022-10-17T07:20:37;11.03;;;9.90;;
7621;SDS011;3852;52.284;8.032;2022-10-17T07:23:04;15.87;;;11.87;;
7621;SDS011;3852;52.284;8.032;2022-10-17T07:25:30;13.83;;;11.50;;
7621;SDS011;3852;52.284;8.032;2022-10-17T07:27:56;12.57;;;10.93;;
7621;SDS011;3852;52.284;8.032;2022-10-17T07:30:22;12.30;;;10.43;;
7621;SDS011;3852;52.284;8.032;2022-10-17T07:32:48;11.83;;;10.60;;
7621;SDS011;3852;52.284;8.032;2022-10-17T07:35:17;12.93;;;10.37;;
7621;SDS011;3852;52.284;8.032;2022-10-17T07:37:43;15.03;;;11.00;;
7621;SDS011;3852;52.284;8.032;2022-10-17T07:40:09;12.07;;;10.50;;
7621;SDS011;3852;52.284;8.032;2022-10-17T07:42:35;11.90;;;10.03;;
7621;SDS011;3852;52.284;8.032;2022-10-17T07:45:02;12.73;;;10.17;;
7621;SDS011;3852;52.284;8.032;2022-10-17T07:47:28;14.60;;;10.57;;
7621;SDS011;3852;52.284;8.032;2022-10-17T07:49:55;11.73;;;10.27;;
7621;SDS011;3852;52.284;8.032;2022-10-17T07:52:21;13.07;;;10.70;;
7621;SDS011;3852;52.284;8.032;2022-10-17T07:54:47;13.27;;;10.20;;
7621;SDS011;3852;52.284;8.032;2022-10-17T07:57:13;12.70;;;10.20;;
7621;SDS011;3852;52.284;8.032;2022-10-17T07:59:39;10.00;;;9.03;;
7621;SDS011;3852;52.284;8.032;2022-10-17T08:02:05;9.40;;;8.50;;
7621;SDS011;3852;52.284;8.032;2022-10-17T08:04:32;10.27;;;7.93;;
7621;SDS011;3852;52.284;8.032;2022-10-17T08:07:00;28.60;;;25.50;;
7621;SDS011;3852;52.284;8.032;2022-10-17T08:09:26;11.83;;;9.13;;
7621;SDS011;3852;52.284;8.032;2022-10-17T08:11:51;7.00;;;6.30;;
7621;SDS011;3852;52.284;8.032;2022-10-17T08:14:18;7.50;;;5.87;;
7621;SDS011;3852;52.284;8.032;2022-10-17T08:16:43;6.33;;;5.60;;
7621;SDS011;3852;52.284;8.032;2022-10-17T08:19:12;7.23;;;6.03;;
7621;SDS011;3852;52.284;8.032;2022-10-17T08:21:38;5.73;;;5.13;;
7621;SDS011;3852;52.284;8.032;2022-10-17T08:24:05;5.83;;;5.23;;
7621;SDS011;3852;52.284;8.032;2022-10-17T08:26:31;7.80;;;5.40;;
7621;SDS011;3852;52.284;8.032;2022-10-17T08:28:56;7.97;;;5.00;;
7621;SDS011;3852;52.284;8.032;2022-10-17T08:31:22;6.27;;;5.10;;
7621;SDS011;3852;52.284;8.032;2022-10-17T08:33:48;5.57;;;4.80;;
7621;SDS011;3852;52.284;8.032;2022-10-17T08:36:16;7.57;;;5.17;;
7621;SDS011;3852;52.284;8.032;2022-10-17T08:38:43;5.70;;;4.90;;
7621;SDS011;3852;52.284;8.032;2022-10-17T08:46:54;6.50;;;4.70;;
7621;SDS011;3852;52.284;8.032;2022-10-17T08:52:15;5.50;;;4.83;;
7621;SDS011;3852;52.284;8.032;2022-10-17T08:55:02;5.07;;;4.57;;
7621;SDS011;3852;52.284;8.032;2022-10-17T08:57:29;6.20;;;5.60;;
7621;SDS011;3852;52.284;8.032;2022-10-17T08:59:55;5.77;;;4.47;;
7621;SDS011;3852;52.284;8.032;2022-10-17T09:02:36;5.47;;;4.97;;
7621;SDS011;3852;52.284;8.032;2022-10-17T09:08:23;5.37;;;4.87;;
7621;SDS011;3852;52.284;8.032;2022-10-17T09:17:07;5.40;;;4.77;;
7621;SDS011;3852;52.284;8.032;2022-10-17T09:25:43;9.33;;;4.40;;
7621;SDS011;3852;52.284;8.032;2022-10-17T09:28:29;5.20;;;4.50;;
7621;SDS011;3852;52.284;8.032;2022-10-17T09:31:01;6.37;;;4.80;;
7621;SDS011;3852;52.284;8.032;2022-10-17T09:33:56;5.13;;;4.73;;
7621;SDS011;3852;52.284;8.032;2022-10-17T09:38:59;6.33;;;4.73;;
7621;SDS011;3852;52.284;8.032;2022-10-17T09:41:57;6.43;;;4.33;;
7621;SDS011;3852;52.284;8.032;2022-10-17T09:44:29;4.93;;;4.40;;
7621;SDS011;3852;52.284;8.032;2022-10-17T09:47:00;5.10;;;4.50;;
7621;SDS011;3852;52.284;8.032;2022-10-17T09:49:48;5.80;;;4.80;;
7621;SDS011;3852;52.284;8.032;2022-10-17T09:55:16;4.70;;;4.30;;
7621;SDS011;3852;52.284;8.032;2022-10-17T09:57:54;5.67;;;4.60;;
7621;SDS011;3852;52.284;8.032;2022-10-17T10:00:24;6.53;;;4.90;;
7621;SDS011;3852;52.284;8.032;2022-10-17T10:03:08;5.00;;;4.50;;
7621;SDS011;3852;52.284;8.032;2022-10-17T10:05:37;7.40;;;5.30;;
7621;SDS011;3852;52.284;8.032;2022-10-17T10:08:14;4.30;;;3.90;;
7621;SDS011;3852;52.284;8.032;2022-10-17T10:10:41;5.23;;;4.70;;
7621;SDS011;3852;52.284;8.032;2022-10-17T10:15:38;5.07;;;4.67;;
7621;SDS011;3852;52.284;8.032;2022-10-17T10:18:25;4.80;;;4.37;;
7621;SDS011;3852;52.284;8.032;2022-10-17T10:23:37;4.60;;;4.20;;
7621;SDS011;3852;52.284;8.032;2022-10-17T10:26:22;5.80;;;4.50;;
7621;SDS011;3852;52.284;8.032;2022-10-17T10:28:55;6.10;;;4.57;;
7621;SDS011;3852;52.284;8.032;2022-10-17T10:31:42;5.33;;;4.63;;
7621;SDS011;3852;52.284;8.032;2022-10-17T10:34:25;5.73;;;4.60;;
7621;SDS011;3852;52.284;8.032;2022-10-17T10:39:32;6.87;;;4.43;;
7621;SDS011;3852;52.284;8.032;2022-10-17T10:42:03;4.80;;;4.30;;
7621;SDS011;3852;52.284;8.032;2022-10-17T10:44:32;4.57;;;4.17;;
7621;SDS011;3852;52.284;8.032;2022-10-17T10:47:16;6.33;;;4.77;;
7621;SDS011;3852;52.284;8.032;2022-10-17T10:49:53;4.80;;;4.30;;
7621;SDS011;3852;52.284;8.032;2022-10-17T10:52:41;6.57;;;4.30;;
7621;SDS011;3852;52.284;8.032;2022-10-17T10:55:31;6.87;;;4.07;;
7621;SDS011;3852;52.284;8.032;2022-10-17T11:01:11;6.17;;;4.50;;
7621;SDS011;3852;52.284;8.032;2022-10-17T11:04:18;5.70;;;4.50;;
7621;SDS011;3852;52.284;8.032;2022-10-17T11:06:48;4.83;;;4.53;;
7621;SDS011;3852;52.284;8.032;2022-10-17T11:12:03;7.03;;;4.27;;
7621;SDS011;3852;52.284;8.032;2022-10-17T11:14:57;7.30;;;4.83;;
7621;SDS011;3852;52.284;8.032;2022-10-17T11:18:46;4.83;;;4.33;;
7621;SDS011;3852;52.284;8.032;2022-10-17T11:21:14;7.73;;;4.83;;
7621;SDS011;3852;52.284;8.032;2022-10-17T11:23:52;6.27;;;4.60;;
7621;SDS011;3852;52.284;8.032;2022-10-17T11:26:30;4.90;;;4.40;;
7621;SDS011;3852;52.284;8.032;2022-10-17T11:29:02;5.60;;;4.73;;
7621;SDS011;3852;52.284;8.032;2022-10-17T11:31:40;6.33;;;4.73;;
7621;SDS011;3852;52.284;8.032;2022-10-17T11:36:47;5.20;;;4.80;;
7621;SDS011;3852;52.284;8.032;2022-10-17T11:39:18;5.60;;;4.77;;
7621;SDS011;3852;52.284;8.032;2022-10-17T11:44:53;8.53;;;5.03;;
7621;SDS011;3852;52.284;8.032;2022-10-17T11:55:47;7.23;;;5.53;;
7621;SDS011;3852;52.284;8.032;2022-10-17T11:58:16;7.07;;;6.37;;
7621;SDS011;3852;52.284;8.032;2022-10-17T12:09:30;9.13;;;5.80;;
7621;SDS011;3852;52.284;8.032;2022-10-17T12:12:24;8.77;;;6.37;;
7621;SDS011;3852;52.284;8.032;2022-10-17T12:17:43;6.80;;;6.07;;
7621;SDS011;3852;52.284;8.032;2022-10-17T12:22:49;7.63;;;6.93;;
7621;SDS011;3852;52.284;8.032;2022-10-17T12:25:28;8.53;;;6.40;;
7621;SDS011;3852;52.284;8.032;2022-10-17T12:28:14;7.27;;;6.57;;
7621;SDS011;3852;52.284;8.032;2022-10-17T12:33:48;8.80;;;6.67;;
7621;SDS011;3852;52.284;8.032;2022-10-17T12:42:20;9.67;;;7.10;;
7621;SDS011;3852;52.284;8.032;2022-10-17T13:00:18;8.10;;;6.83;;
7621;SDS011;3852;52.284;8.032;2022-10-17T13:02:53;7.73;;;7.03;;
7621;SDS011;3852;52.284;8.032;2022-10-17T13:05:32;9.30;;;7.57;;
7621;SDS011;3852;52.284;8.032;2022-10-17T13:08:01;9.43;;;7.00;;
7621;SDS011;3852;52.284;8.032;2022-10-17T13:10:32;9.37;;;7.10;;
7621;SDS011;3852;52.284;8.032;2022-10-17T13:13:23;7.83;;;7.03;;
7621;SDS011;3852;52.284;8.032;2022-10-17T13:15:52;9.37;;;7.63;;
7621;SDS011;3852;52.284;8.032;2022-10-17T13:18:26;10.10;;;7.40;;
7621;SDS011;3852;52.284;8.032;2022-10-17T13:20:54;10.87;;;7.20;;
7621;SDS011;3852;52.284;8.032;2022-10-17T13:23:23;9.97;;;7.50;;
7621;SDS011;3852;52.284;8.032;2022-10-17T13:26:03;8.40;;;7.60;;
7621;SDS011;3852;52.284;8.032;2022-10-17T13:29:31;8.80;;;7.90;;
7621;SDS011;3852;52.284;8.032;2022-10-17T13:31:38;7.47;;;6.77;;
7621;SDS011;3852;52.284;8.032;2022-10-17T13:34:16;8.10;;;7.13;;
7621;SDS011;3852;52.284;8.032;2022-10-17T13:36:49;9.37;;;6.83;;
7621;SDS011;3852;52.284;8.032;2022-10-17T13:39:20;8.47;;;7.13;;
7621;SDS011;3852;52.284;8.032;2022-10-17T13:41:48;9.77;;;7.50;;
7621;SDS011;3852;52.284;8.032;2022-10-17T13:44:18;12.37;;;8.00;;
7621;SDS011;3852;52.284;8.032;2022-10-17T13:46:46;7.47;;;6.37;;
7621;SDS011;3852;52.284;8.032;2022-10-17T13:49:25;6.90;;;6.23;;
7621;SDS011;3852;52.284;8.032;2022-10-17T13:52:04;8.23;;;6.93;;
7621;SDS011;3852;52.284;8.032;2022-10-17T13:54:39;8.87;;;7.70;;
7621;SDS011;3852;52.284;8.032;2022-10-17T13:57:20;8.47;;;7.53;;
7621;SDS011;3852;52.284;8.032;2022-10-17T13:59:49;7.83;;;6.13;;
7621;SDS011;3852;52.284;8.032;2022-10-17T14:02:20;9.80;;;6.60;;
7621;SDS011;3852;52.284;8.032;2022-10-17T14:05:00;7.13;;;6.53;;
7621;SDS011;3852;52.284;8.032;2022-10-17T14:10:21;8.73;;;7.93;;
7621;SDS011;3852;52.284;8.032;2022-10-17T14:12:50;13.43;;;12.13;;
7621;SDS011;3852;52.284;8.032;2022-10-17T14:15:18;12.90;;;11.67;;
7621;SDS011;3852;52.284;8.032;2022-10-17T14:17:52;9.13;;;8.13;;
7621;SDS011;3852;52.284;8.032;2022-10-17T14:20:22;9.10;;;8.00;;
7621;SDS011;3852;52.284;8.032;2022-10-17T14:22:48;9.30;;;8.37;;
7621;SDS011;3852;52.284;8.032;2022-10-17T14:25:26;9.27;;;7.77;;
7621;SDS011;3852;52.284;8.032;2022-10-17T14:28:12;10.03;;;7.63;;
7621;SDS011;3852;52.284;8.032;2022-10-17T14:30:51;22.03;;;18.77;;
7621;SDS011;3852;52.284;8.032;2022-10-17T14:33:22;14.13;;;12.30;;
7621;SDS011;3852;52.284;8.032;2022-10-17T14:35:53;17.50;;;10.97;;
7621;SDS011;3852;52.284;8.032;2022-10-17T14:38:22;11.00;;;9.30;;
7621;SDS011;3852;52.284;8.032;2022-10-17T14:41:11;12.10;;;10.20;;
7621;SDS011;3852;52.284;8.032;2022-10-17T14:43:43;11.33;;;9.63;;
7621;SDS011;3852;52.284;8.032;2022-10-17T14:46:15;11.53;;;9.10;;
7621;SDS011;3852;52.284;8.032;2022-10-17T14:48:41;10.03;;;8.83;;
7621;SDS011;3852;52.284;8.032;2022-10-17T14:51:11;8.87;;;8.07;;
7621;SDS011;3852;52.284;8.032;2022-10-17T14:53:40;9.90;;;8.90;;
7621;SDS011;3852;52.284;8.032;2022-10-17T14:56:35;9.73;;;8.73;;
7621;SDS011;3852;52.284;8.032;2022-10-17T14:59:07;9.60;;;8.70;;
7621;SDS011;3852;52.284;8.032;2022-10-17T15:01:35;10.27;;;8.87;;
7621;SDS011;3852;52.284;8.032;2022-10-17T15:04:01;11.10;;;9.37;;
7621;SDS011;3852;52.284;8.032;2022-10-17T15:06:29;8.50;;;7.70;;
7621;SDS011;3852;52.284;8.032;2022-10-17T15:08:58;10.00;;;9.07;;
7621;SDS011;3852;52.284;8.032;2022-10-17T15:11:25;9.87;;;8.97;;
7621;SDS011;3852;52.284;8.032;2022-10-17T15:13:51;10.70;;;9.60;;
7621;SDS011;3852;52.284;8.032;2022-10-17T15:16:24;11.57;;;9.97;;
7621;SDS011;3852;52.284;8.032;2022-10-17T15:18:54;10.97;;;9.53;;
7621;SDS011;3852;52.284;8.032;2022-10-17T15:21:21;10.57;;;9.47;;
7621;SDS011;3852;52.284;8.032;2022-10-17T15:23:51;10.60;;;9.70;;
7621;SDS011;3852;52.284;8.032;2022-10-17T15:26:18;11.10;;;10.00;;
7621;SDS011;3852;52.284;8.032;2022-10-17T15:28:50;10.47;;;9.47;;
7621;SDS011;3852;52.284;8.032;2022-10-17T15:31:18;10.73;;;9.63;;
7621;SDS011;3852;52.284;8.032;2022-10-17T15:33:46;11.90;;;10.67;;
7621;SDS011;3852;52.284;8.032;2022-10-17T15:38:54;12.63;;;11.40;;
7621;SDS011;3852;52.284;8.032;2022-10-17T15:41:24;13.40;;;11.27;;
7621;SDS011;3852;52.284;8.032;2022-10-17T15:43:52;14.07;;;12.47;;
7621;SDS011;3852;52.284;8.032;2022-10-17T15:46:22;13.63;;;12.20;;
7621;SDS011;3852;52.284;8.032;2022-10-17T15:48:54;14.57;;;12.17;;
7621;SDS011;3852;52.284;8.032;2022-10-17T15:51:21;14.33;;;12.43;;
7621;SDS011;3852;52.284;8.032;2022-10-17T15:53:47;15.20;;;12.33;;
7621;SDS011;3852;52.284;8.032;2022-10-17T15:56:36;16.73;;;12.63;;
7621;SDS011;3852;52.284;8.032;2022-10-17T15:59:05;13.43;;;12.10;;
7621;SDS011;3852;52.284;8.032;2022-10-17T16:01:37;14.27;;;12.30;;
7621;SDS011;3852;52.284;8.032;2022-10-17T16:04:03;14.77;;;12.53;;
7621;SDS011;3852;52.284;8.032;2022-10-17T16:06:29;17.27;;;12.27;;
7621;SDS011;3852;52.284;8.032;2022-10-17T16:08:55;14.63;;;12.47;;
7621;SDS011;3852;52.284;8.032;2022-10-17T16:14:10;15.67;;;11.57;;
7621;SDS011;3852;52.284;8.032;2022-10-17T16:16:38;16.23;;;14.03;;
7621;SDS011;3852;52.284;8.032;2022-10-17T16:19:04;14.77;;;12.30;;
7621;SDS011;3852;52.284;8.032;2022-10-17T16:21:31;13.17;;;11.77;;
7621;SDS011;3852;52.284;8.032;2022-10-17T16:23:59;15.50;;;11.10;;
7621;SDS011;3852;52.284;8.032;2022-10-17T16:26:26;13.77;;;11.20;;
7621;SDS011;3852;52.284;8.032;2022-10-17T16:28:52;16.27;;;12.07;;
7621;SDS011;3852;52.284;8.032;2022-10-17T16:33:52;14.80;;;13.30;;
7621;SDS011;3852;52.284;8.032;2022-10-17T16:36:19;14.83;;;12.30;;
7621;SDS011;3852;52.284;8.032;2022-10-17T16:38:46;13.13;;;11.83;;
7621;SDS011;3852;52.284;8.032;2022-10-17T16:41:23;14.73;;;13.30;;
7621;SDS011;3852;52.284;8.032;2022-10-17T16:43:53;15.03;;;12.20;;
7621;SDS011;3852;52.284;8.032;2022-10-17T16:46:21;14.73;;;13.07;;
7621;SDS011;3852;52.284;8.032;2022-10-17T16:48:48;12.90;;;11.53;;
7621;SDS011;3852;52.284;8.032;2022-10-17T16:51:15;16.03;;;12.67;;
7621;SDS011;3852;52.284;8.032;2022-10-17T16:53:44;13.07;;;11.67;;
7621;SDS011;3852;52.284;8.032;2022-10-17T16:56:15;13.87;;;12.10;;
7621;SDS011;3852;52.284;8.032;2022-10-17T16:58:43;13.80;;;12.10;;
7621;SDS011;3852;52.284;8.032;2022-10-17T17:01:10;13.73;;;12.33;;
7621;SDS011;3852;52.284;8.032;2022-10-17T17:03:40;12.97;;;11.50;;
7621;SDS011;3852;52.284;8.032;2022-10-17T17:06:10;13.90;;;12.50;;
7621;SDS011;3852;52.284;8.032;2022-10-17T17:08:40;13.77;;;12.37;;
7621;SDS011;3852;52.284;8.032;2022-10-17T17:11:07;14.40;;;12.80;;
7621;SDS011;3852;52.284;8.032;2022-10-17T17:13:35;17.73;;;14.40;;
7621;SDS011;3852;52.284;8.032;2022-10-17T17:16:06;15.90;;;14.30;;
7621;SDS011;3852;52.284;8.032;2022-10-17T17:18:32;19.20;;;17.30;;
7621;SDS011;3852;52.284;8.032;2022-10-17T17:20:59;17.37;;;14.63;;
7621;SDS011;3852;52.284;8.032;2022-10-17T17:23:26;15.57;;;13.93;;
7621;SDS011;3852;52.284;8.032;2022-10-17T17:25:59;14.70;;;13.30;;
7621;SDS011;3852;52.284;8.032;2022-10-17T17:28:34;14.60;;;12.83;;
7621;SDS011;3852;52.284;8.032;2022-10-17T17:31:01;16.17;;;14.10;;
7621;SDS011;3852;52.284;8.032;2022-10-17T17:33:31;16.87;;;14.33;;
7621;SDS011;3852;52.284;8.032;2022-10-17T17:35:58;15.57;;;13.50;;
7621;SDS011;3852;52.284;8.032;2022-10-17T17:38:27;15.33;;;13.77;;
7621;SDS011;3852;52.284;8.032;2022-10-17T17:40:54;16.43;;;14.70;;
7621;SDS011;3852;52.284;8.032;2022-10-17T17:43:20;14.63;;;13.23;;
7621;SDS011;3852;52.284;8.032;2022-10-17T17:45:46;14.97;;;13.37;;